Time;durP1;ratioP1;P1;durP2;ratioP2;P2;SDS_P1;SDS_P2;PMS_P1;PMS_P2;Temp;Humidity;BMP_temperature;BMP_pressure;BME280_temperature;BME280_humidity;BME280_pressure;Samples;Min_cycle;Max_cycle;Signal;HPM_P1;HPM_P2
2022/05/20 00:02:05;;;;;;;8.27;4.43;;;14.20;99.90;;;;;;5026893;28;22419;-80
2022/05/20 00:04:30;;;;;;;6.28;3.97;;;14.20;99.90;;;;;;5027053;28;20069;-80
2022/05/20 00:06:56;;;;;;;6.68;3.83;;;14.20;99.90;;;;;;5022121;28;20076;-80
2022/05/20 00:09:21;;;;;;;7.15;3.58;;;14.20;99.90;;;;;;5025719;28;20041;-80
2022/05/20 00:11:47;;;;;;;6.50;3.92;;;14.20;99.90;;;;;;5057593;28;20084;-79
2022/05/20 00:14:13;;;;;;;6.18;3.78;;;14.20;99.90;;;;;;5030180;28;20037;-79
2022/05/20 00:16:39;;;;;;;7.63;3.70;;;14.10;99.90;;;;;;5024930;28;20055;-80
2022/05/20 00:19:06;;;;;;;7.57;3.58;;;14.00;99.90;;;;;;5024397;28;20057;-80
2022/05/20 00:21:33;;;;;;;6.47;3.60;;;14.00;99.90;;;;;;5024245;28;20103;-79
2022/05/20 00:23:59;;;;;;;6.63;3.92;;;14.00;99.90;;;;;;5021111;28;20045;-80
2022/05/20 00:26:25;;;;;;;6.70;3.72;;;14.00;99.90;;;;;;5024732;28;20516;-80
2022/05/20 00:28:53;;;;;;;6.30;3.90;;;14.00;99.90;;;;;;5029945;28;20053;-79
2022/05/20 00:31:20;;;;;;;8.05;4.22;;;14.00;99.90;;;;;;5030085;28;20497;-80
2022/05/20 00:33:46;;;;;;;8.18;4.25;;;14.00;99.90;;;;;;5023964;28;20123;-79
2022/05/20 00:36:11;;;;;;;8.00;4.05;;;14.00;99.90;;;;;;5031806;28;20084;-79
2022/05/20 00:38:37;;;;;;;7.13;4.32;;;14.10;99.90;;;;;;5021452;28;20107;-79
2022/05/20 00:41:04;;;;;;;7.43;4.03;;;14.10;99.90;;;;;;5026285;28;20445;-80
2022/05/20 00:43:44;;;;;;;7.13;4.25;;;14.10;99.90;;;;;;5024525;28;20547;-79
2022/05/20 00:46:17;;;;;;;10.05;4.72;;;14.10;99.90;;;;;;5025121;28;20147;-79
2022/05/20 00:48:46;;;;;;;7.07;4.72;;;14.10;99.90;;;;;;5028790;28;20374;-79
2022/05/20 00:51:31;;;;;;;6.75;4.45;;;14.00;99.90;;;;;;5026795;28;20488;-79
2022/05/20 00:54:11;;;;;;;6.63;4.05;;;14.00;99.90;;;;;;5037659;28;20088;-80
2022/05/20 00:56:44;;;;;;;8.35;5.18;;;14.00;99.90;;;;;;5023993;28;20038;-79
2022/05/20 00:59:17;;;;;;;8.68;4.55;;;14.00;99.90;;;;;;5026004;28;20053;-78
2022/05/20 01:01:47;;;;;;;6.73;4.80;;;13.90;99.90;;;;;;5026500;28;20124;-80
2022/05/20 01:04:16;;;;;;;8.70;5.53;;;13.90;99.90;;;;;;5024373;28;20041;-80
2022/05/20 01:06:43;;;;;;;7.38;4.43;;;13.90;99.90;;;;;;5024770;28;20485;-79
2022/05/20 01:09:09;;;;;;;9.75;5.80;;;13.80;99.90;;;;;;5030151;28;20706;-79
2022/05/20 01:11:38;;;;;;;9.50;5.25;;;13.80;99.90;;;;;;5029200;28;20048;-79
2022/05/20 01:14:04;;;;;;;11.77;5.70;;;13.90;99.90;;;;;;5025379;28;20069;-79
2022/05/20 01:16:32;;;;;;;13.23;6.50;;;13.70;99.90;;;;;;5027989;28;20447;-79
2022/05/20 01:18:57;;;;;;;10.15;6.38;;;13.70;99.90;;;;;;5027212;28;20053;-79
2022/05/20 01:21:23;;;;;;;12.07;7.00;;;13.60;99.90;;;;;;5024773;28;20041;-79
2022/05/20 01:23:49;;;;;;;10.00;5.80;;;13.60;99.90;;;;;;5034199;28;20049;-77
2022/05/20 01:26:15;;;;;;;10.25;6.18;;;13.50;99.90;;;;;;5027906;28;20473;-79
2022/05/20 01:28:41;;;;;;;9.85;6.18;;;13.40;99.90;;;;;;5023602;28;20057;-79
2022/05/20 01:31:13;;;;;;;11.60;6.90;;;13.40;99.90;;;;;;5028340;28;20110;-79
2022/05/20 01:33:46;;;;;;;10.85;6.50;;;13.30;99.90;;;;;;5023959;28;20124;-78
2022/05/20 01:36:18;;;;;;;11.07;6.18;;;13.30;99.90;;;;;;5028517;28;20116;-77
2022/05/20 01:38:49;;;;;;;9.40;6.10;;;13.20;99.90;;;;;;5024265;28;20113;-79
2022/05/20 01:41:35;;;;;;;11.77;6.43;;;13.10;99.90;;;;;;5027760;28;20147;-79
2022/05/20 01:44:31;;;;;;;13.68;6.53;;;13.10;99.90;;;;;;5041083;28;20401;-79
2022/05/20 01:47:21;;;;;;;9.93;6.22;;;13.10;99.90;;;;;;5024779;28;20052;-78
2022/05/20 01:50:04;;;;;;;10.65;7.15;;;13.10;99.90;;;;;;5024812;28;20045;-79
2022/05/20 01:52:37;;;;;;;10.77;6.25;;;13.00;99.90;;;;;;5020063;28;20060;-79
2022/05/20 01:55:17;;;;;;;12.68;6.72;;;13.00;99.90;;;;;;5028546;28;20045;-78
2022/05/20 01:57:55;;;;;;;12.15;6.05;;;13.00;99.90;;;;;;5050008;28;20072;-79
2022/05/20 02:00:25;;;;;;;11.68;7.30;;;13.00;99.90;;;;;;5022982;28;20064;-78
2022/05/20 02:03:14;;;;;;;9.82;6.32;;;12.90;99.90;;;;;;5057449;28;20044;-78
2022/05/20 02:05:45;;;;;;;9.95;7.78;;;13.00;99.90;;;;;;5023452;28;20216;-79
2022/05/20 02:08:21;;;;;;;13.50;7.32;;;12.90;99.90;;;;;;5023978;28;20056;-78
2022/05/20 02:11:13;;;;;;;10.18;6.55;;;12.90;99.90;;;;;;5028828;28;20050;-78
2022/05/20 02:13:46;;;;;;;11.20;6.78;;;12.90;99.90;;;;;;5021399;28;20131;-78
2022/05/20 02:16:17;;;;;;;12.20;6.78;;;12.80;99.90;;;;;;5025238;28;20053;-78
2022/05/20 02:18:55;;;;;;;12.52;7.88;;;12.80;99.90;;;;;;5026307;28;20099;-78
2022/05/20 02:21:27;;;;;;;11.70;7.50;;;12.80;99.90;;;;;;5023387;28;20079;-78
2022/05/20 02:23:57;;;;;;;11.30;6.85;;;12.80;99.90;;;;;;5018066;28;20084;-78
2022/05/20 02:26:26;;;;;;;12.60;7.53;;;12.80;99.90;;;;;;5024095;28;20128;-78
2022/05/20 02:28:58;;;;;;;10.77;7.63;;;12.80;99.90;;;;;;5023104;28;20053;-78
2022/05/20 02:31:35;;;;;;;11.65;7.20;;;12.80;99.90;;;;;;5028248;28;20156;-78
2022/05/20 02:34:01;;;;;;;10.75;6.60;;;12.70;99.90;;;;;;5028531;28;20535;-78
2022/05/20 02:36:33;;;;;;;14.55;7.53;;;12.60;99.90;;;;;;5063815;28;20041;-77
2022/05/20 02:38:59;;;;;;;10.80;6.57;;;12.60;99.90;;;;;;5028916;28;20045;-78
2022/05/20 02:41:25;;;;;;;11.35;6.97;;;12.50;99.90;;;;;;5050764;28;20046;-78
2022/05/20 02:43:51;;;;;;;13.88;7.57;;;12.40;99.90;;;;;;5028057;28;20056;-78
2022/05/20 02:46:17;;;;;;;12.45;7.88;;;12.30;99.90;;;;;;5029568;28;20073;-78
2022/05/20 02:48:42;;;;;;;11.02;6.53;;;12.30;99.90;;;;;;5027929;28;20119;-75
2022/05/20 02:51:08;;;;;;;10.73;6.68;;;12.30;99.90;;;;;;5031229;28;20084;-78
2022/05/20 02:53:34;;;;;;;12.02;7.72;;;12.30;99.90;;;;;;5025974;28;20049;-78
2022/05/20 02:56:00;;;;;;;11.93;7.68;;;12.20;99.90;;;;;;5030539;28;20112;-77
2022/05/20 03:04:11;;;;;;;9.75;7.00;;;12.10;99.90;;;;;;5029638;28;19925;-78
2022/05/20 03:06:38;;;;;;;11.60;7.75;;;12.10;99.90;;;;;;5023084;28;20476;-77
2022/05/20 03:09:07;;;;;;;11.65;8.27;;;12.00;99.90;;;;;;5034870;28;20449;-78
2022/05/20 03:11:34;;;;;;;9.65;7.20;;;12.00;99.90;;;;;;5017787;28;20092;-78
2022/05/20 03:14:04;;;;;;;11.02;7.20;;;12.00;99.90;;;;;;5045772;28;20373;-78
2022/05/20 03:16:31;;;;;;;9.68;7.65;;;11.90;99.90;;;;;;5056036;28;20079;-78
2022/05/20 03:18:58;;;;;;;10.75;7.18;;;11.80;99.90;;;;;;5024928;28;20116;-78
2022/05/20 03:21:26;;;;;;;10.02;6.60;;;11.80;99.90;;;;;;5030086;28;20045;-78
2022/05/20 03:23:54;;;;;;;11.32;7.05;;;11.70;99.90;;;;;;5025218;28;20053;-77
2022/05/20 03:26:21;;;;;;;10.65;7.68;;;11.70;99.90;;;;;;5030223;28;20111;-78
2022/05/20 03:28:47;;;;;;;11.55;7.93;;;11.70;99.90;;;;;;5026276;28;20578;-77
2022/05/20 03:31:14;;;;;;;11.45;8.23;;;11.60;99.90;;;;;;5031371;28;20053;-77
2022/05/20 03:33:41;;;;;;;10.20;7.20;;;11.60;99.90;;;;;;5022401;28;20447;-78
2022/05/20 03:36:08;;;;;;;10.63;7.82;;;11.60;99.90;;;;;;5018391;28;20084;-77
2022/05/20 03:38:34;;;;;;;10.68;7.55;;;11.60;99.90;;;;;;5025527;28;20045;-78
2022/05/20 03:41:00;;;;;;;13.15;9.60;;;11.60;99.90;;;;;;5026293;28;20061;-78
2022/05/20 03:43:26;;;;;;;12.50;9.38;;;11.50;99.90;;;;;;5030630;28;20481;-76
2022/05/20 03:45:58;;;;;;;13.93;10.32;;;11.50;99.90;;;;;;5027691;28;20081;-78
2022/05/20 03:48:23;;;;;;;16.35;9.70;;;11.50;99.90;;;;;;5030499;28;20060;-77
2022/05/20 03:50:49;;;;;;;14.35;8.02;;;11.50;99.90;;;;;;5026835;28;20041;-78
2022/05/20 03:53:15;;;;;;;9.90;8.05;;;11.40;99.90;;;;;;5032058;28;20045;-77
2022/05/20 03:55:41;;;;;;;11.43;8.02;;;11.40;99.90;;;;;;5032379;28;20517;-77
2022/05/20 03:58:07;;;;;;;14.25;11.18;;;11.40;99.90;;;;;;5031932;28;20077;-78
2022/05/20 04:01:56;;;;;;;13.27;10.70;;;11.40;99.90;;;;;;5029190;28;20049;-77
2022/05/20 04:03:19;;;;;;;11.15;9.07;;;11.30;99.90;;;;;;5029302;28;20069;-77
2022/05/20 04:05:45;;;;;;;11.75;8.57;;;11.40;99.90;;;;;;5029351;28;20073;-77
2022/05/20 04:08:10;;;;;;;10.68;8.38;;;11.30;99.90;;;;;;5026886;28;20431;-77
2022/05/20 04:10:37;;;;;;;11.05;8.52;;;11.30;99.90;;;;;;5024234;28;20073;-77
2022/05/20 04:13:02;;;;;;;12.35;9.43;;;11.30;99.90;;;;;;5025374;28;20046;-77
2022/05/20 04:15:31;;;;;;;11.90;9.70;;;11.30;99.90;;;;;;5026026;28;20041;-77
2022/05/20 04:17:56;;;;;;;13.00;9.40;;;11.30;99.90;;;;;;5027702;28;20442;-78
2022/05/20 04:20:22;;;;;;;13.27;10.38;;;11.30;99.90;;;;;;5028984;28;20037;-77
2022/05/20 04:22:47;;;;;;;14.13;10.77;;;11.30;99.90;;;;;;5026746;28;20057;-78
2022/05/20 04:25:13;;;;;;;14.50;10.25;;;11.30;99.90;;;;;;5025463;28;20141;-77
2022/05/20 04:27:39;;;;;;;15.98;10.85;;;11.40;99.90;;;;;;5026619;28;20045;-77
2022/05/20 04:30:06;;;;;;;14.60;11.77;;;11.40;99.90;;;;;;5030011;28;20045;-77
2022/05/20 04:32:31;;;;;;;14.15;11.82;;;11.40;99.90;;;;;;5026357;28;20057;-77
2022/05/20 04:34:58;;;;;;;17.25;12.50;;;11.40;99.90;;;;;;5026036;28;20061;-77
2022/05/20 04:37:29;;;;;;;17.30;12.93;;;11.40;99.90;;;;;;5025682;28;20049;-78
2022/05/20 04:39:54;;;;;;;18.25;13.52;;;11.50;99.90;;;;;;5028814;28;20042;-77
2022/05/20 04:47:49;;;;;;;20.00;14.07;;;11.50;99.90;;;;;;5024207;28;20053;-77
2022/05/20 04:50:15;;;;;;;21.10;15.48;;;11.60;99.90;;;;;;5027511;28;20045;-78
2022/05/20 04:52:41;;;;;;;18.63;13.85;;;11.60;99.90;;;;;;5025325;28;20049;-76
2022/05/20 04:55:10;;;;;;;20.30;13.70;;;11.60;99.90;;;;;;5021313;28;20386;-77
2022/05/20 04:57:41;;;;;;;17.77;13.82;;;11.60;99.90;;;;;;5025067;28;20056;-76
2022/05/20 05:00:36;;;;;;;21.00;14.98;;;11.60;99.90;;;;;;5029113;28;20057;-78
2022/05/20 05:03:02;;;;;;;18.60;14.07;;;11.60;99.90;;;;;;5023023;28;20060;-76
2022/05/20 05:05:29;;;;;;;20.63;14.55;;;11.60;99.90;;;;;;5034586;28;20032;-76
2022/05/20 05:07:57;;;;;;;20.98;15.23;;;11.70;99.90;;;;;;5033595;28;20061;-76
2022/05/20 05:10:25;;;;;;;19.98;15.57;;;11.70;99.90;;;;;;5031700;28;20042;-76
2022/05/20 05:12:51;;;;;;;19.38;13.88;;;11.60;99.90;;;;;;5025744;28;20077;-79
2022/05/20 05:15:18;;;;;;;20.75;16.02;;;11.70;99.90;;;;;;5030467;28;20080;-79
2022/05/20 05:20:29;;;;;;;18.15;14.45;;;11.70;99.90;;;;;;5026117;28;20081;-80
2022/05/20 05:23:02;;;;;;;18.48;14.35;;;11.80;99.90;;;;;;5023475;28;20057;-79
2022/05/20 05:25:30;;;;;;;24.45;15.95;;;11.80;99.90;;;;;;5028396;28;20042;-79
2022/05/20 05:27:56;;;;;;;18.35;15.23;;;11.80;99.90;;;;;;5026615;28;20081;-79
2022/05/20 05:30:23;;;;;;;23.80;16.85;;;11.80;99.90;;;;;;5028579;28;20122;-77
2022/05/20 05:32:48;;;;;;;21.77;15.95;;;11.90;99.90;;;;;;5059093;28;20107;-77
2022/05/20 05:35:17;;;;;;;20.58;15.60;;;11.90;99.90;;;;;;5027188;28;20061;-77
2022/05/20 05:37:43;;;;;;;23.35;15.50;;;11.90;99.90;;;;;;5017847;28;20042;-77
2022/05/20 05:40:13;;;;;;;20.80;15.25;;;12.00;99.90;;;;;;5028087;28;20493;-78
2022/05/20 05:42:41;;;;;;;20.73;15.02;;;12.00;99.90;;;;;;5029085;28;20045;-78
2022/05/20 05:45:07;;;;;;;20.10;14.70;;;12.00;99.90;;;;;;5024720;28;20502;-79
2022/05/20 05:47:33;;;;;;;17.70;13.25;;;12.10;99.90;;;;;;5023309;28;20626;-79
2022/05/20 05:49:58;;;;;;;21.75;15.40;;;12.20;99.90;;;;;;5059188;28;20049;-78
2022/05/20 05:52:24;;;;;;;20.63;14.18;;;12.20;99.90;;;;;;5025663;28;20046;-81
2022/05/20 05:54:49;;;;;;;23.63;15.02;;;12.20;99.90;;;;;;5026943;28;20053;-80
2022/05/20 05:57:15;;;;;;;18.13;13.65;;;12.30;99.90;;;;;;5027118;28;20128;-79
2022/05/20 05:59:41;;;;;;;19.52;14.15;;;12.30;99.90;;;;;;5059034;28;20045;-78
2022/05/20 06:02:08;;;;;;;19.85;14.27;;;12.40;99.90;;;;;;5054979;28;20046;-79
2022/05/20 06:04:34;;;;;;;21.35;13.93;;;12.50;99.90;;;;;;5023198;28;20088;-79
2022/05/20 06:07:00;;;;;;;16.20;11.55;;;12.50;99.90;;;;;;5023918;28;20053;-78
2022/05/20 06:09:25;;;;;;;17.77;11.35;;;12.50;99.90;;;;;;5027442;28;20041;-78
2022/05/20 06:11:51;;;;;;;17.77;11.75;;;12.50;99.90;;;;;;5027233;28;20047;-77
2022/05/20 06:14:17;;;;;;;14.73;10.73;;;12.60;99.90;;;;;;5027551;28;20045;-81
2022/05/20 06:16:44;;;;;;;16.17;11.02;;;12.60;99.90;;;;;;5053738;28;20049;-81
2022/05/20 06:19:10;;;;;;;17.75;12.05;;;12.70;99.90;;;;;;5028307;28;20413;-79
2022/05/20 06:21:37;;;;;;;18.80;11.77;;;12.90;99.90;;;;;;5028878;28;20077;-79
2022/05/20 06:24:04;;;;;;;17.38;10.15;;;13.10;99.90;;;;;;5023085;28;20042;-80
2022/05/20 06:26:30;;;;;;;11.75;6.68;;;13.20;99.90;;;;;;5040850;28;20128;-77
2022/05/20 06:28:56;;;;;;;14.68;8.25;;;13.40;99.90;;;;;;5028289;28;20056;-78
2022/05/20 06:31:21;;;;;;;15.02;8.55;;;13.50;99.90;;;;;;5021484;28;20045;-78
2022/05/20 06:33:48;;;;;;;12.48;7.47;;;13.70;99.90;;;;;;5027971;28;20049;-78
2022/05/20 06:41:43;;;;;;;14.65;6.75;;;14.40;99.90;;;;;;5023519;28;20045;-78
2022/05/20 06:44:18;;;;;;;13.02;6.93;;;14.60;99.90;;;;;;5021520;28;20042;-77
2022/05/20 06:46:43;;;;;;;11.55;5.25;;;14.80;99.90;;;;;;5020688;28;20103;-77
2022/05/20 06:49:09;;;;;;;10.45;5.03;;;14.80;99.90;;;;;;5026470;28;20483;-77
2022/05/20 06:51:37;;;;;;;10.65;5.68;;;14.90;99.90;;;;;;5018464;28;20052;-78
2022/05/20 06:54:06;;;;;;;8.23;5.13;;;15.00;99.90;;;;;;5022466;28;20076;-79
2022/05/20 06:56:32;;;;;;;8.02;5.30;;;15.00;99.90;;;;;;5023559;28;20049;-80
2022/05/20 06:59:00;;;;;;;11.43;5.70;;;15.10;99.90;;;;;;5021077;28;20837;-80
2022/05/20 07:01:26;;;;;;;11.65;5.45;;;15.20;99.90;;;;;;5022843;28;20440;-81
2022/05/20 07:03:52;;;;;;;9.80;5.22;;;15.30;99.90;;;;;;5022500;28;20049;-81
2022/05/20 07:06:18;;;;;;;10.60;4.97;;;15.30;99.90;;;;;;5026534;28;20041;-81
2022/05/20 07:08:48;;;;;;;10.70;5.55;;;15.40;99.90;;;;;;5020452;28;20037;-81
2022/05/20 07:11:21;;;;;;;10.07;5.05;;;15.40;99.90;;;;;;5023310;28;20120;-81
2022/05/20 07:13:48;;;;;;;9.77;5.43;;;15.50;99.90;;;;;;5028258;28;20045;-81
2022/05/20 07:16:14;;;;;;;13.32;5.60;;;15.60;99.90;;;;;;5026738;28;20045;-80
2022/05/20 07:18:40;;;;;;;12.90;5.20;;;15.70;99.90;;;;;;5015393;28;20046;-80
2022/05/20 07:21:05;;;;;;;11.60;6.22;;;15.90;99.90;;;;;;5026539;28;20052;-80
2022/05/20 07:23:32;;;;;;;10.38;5.65;;;16.00;99.90;;;;;;5018956;28;20037;-80
2022/05/20 07:25:59;;;;;;;12.07;5.07;;;16.20;99.90;;;;;;5030979;28;20683;-80
2022/05/20 07:28:24;;;;;;;9.77;4.90;;;16.40;99.90;;;;;;5031518;28;20076;-83
2022/05/20 07:30:51;;;;;;;11.13;5.28;;;16.50;99.90;;;;;;5037612;28;20045;-81
2022/05/20 07:33:16;;;;;;;12.68;5.13;;;16.60;99.90;;;;;;5054075;28;20064;-80
2022/05/20 07:35:42;;;;;;;10.52;4.57;;;16.70;99.90;;;;;;5025679;28;20038;-80
2022/05/20 07:38:08;;;;;;;9.35;5.40;;;16.80;99.90;;;;;;5024639;28;20045;-81
2022/05/20 07:40:34;;;;;;;9.15;5.03;;;16.90;99.90;;;;;;5025057;28;20511;-81
2022/05/20 07:43:00;;;;;;;8.43;4.88;;;16.90;99.90;;;;;;5028245;28;20058;-80
2022/05/20 07:45:25;;;;;;;10.90;4.20;;;16.90;99.90;;;;;;5030859;28;20481;-80
2022/05/20 07:47:51;;;;;;;8.55;4.10;;;16.90;99.90;;;;;;5028977;28;20134;-80
2022/05/20 07:50:17;;;;;;;7.35;3.60;;;16.80;99.90;;;;;;5028900;28;20057;-80
2022/05/20 07:55:38;;;;;;;8.32;4.32;;;17.00;99.90;;;;;;5036482;28;20504;-81
2022/05/20 07:58:07;;;;;;;11.77;4.47;;;17.10;99.90;;;;;;5034484;28;20093;-81
2022/05/20 08:00:33;;;;;;;8.73;4.18;;;17.00;99.90;;;;;;5037584;28;20044;-80
2022/05/20 08:03:03;;;;;;;9.82;4.80;;;16.90;99.90;;;;;;5029273;28;20045;-80
2022/05/20 08:05:30;;;;;;;10.00;4.55;;;16.80;99.90;;;;;;5030813;28;20068;-78
2022/05/20 08:08:02;;;;;;;8.65;4.15;;;16.70;99.90;;;;;;5032084;28;20148;-78
2022/05/20 08:10:31;;;;;;;9.88;4.68;;;16.50;99.90;;;;;;5023782;28;20041;-80
2022/05/20 08:12:57;;;;;;;8.93;4.45;;;16.50;99.90;;;;;;5019676;28;20045;-79
2022/05/20 08:15:24;;;;;;;13.43;5.25;;;16.60;99.90;;;;;;5016012;28;20044;-79
2022/05/20 08:17:50;;;;;;;9.68;4.75;;;16.60;99.90;;;;;;5030765;28;20064;-80
2022/05/20 08:20:22;;;;;;;8.55;5.38;;;16.60;99.90;;;;;;5030304;28;20045;-80
2022/05/20 08:22:53;;;;;;;11.20;4.80;;;16.60;99.90;;;;;;5020382;28;20037;-80
2022/05/20 08:25:19;;;;;;;12.27;4.63;;;16.60;99.90;;;;;;5031897;28;20030;-80
2022/05/20 08:27:44;;;;;;;10.88;4.78;;;16.60;99.90;;;;;;5030035;28;20053;-80
2022/05/20 08:30:14;;;;;;;8.73;5.20;;;16.60;99.90;;;;;;5028238;28;20049;-79
2022/05/20 08:32:40;;;;;;;9.27;4.63;;;16.60;99.90;;;;;;5018454;28;20053;-79
2022/05/20 08:35:07;;;;;;;8.30;3.95;;;16.60;99.90;;;;;;5022672;28;20050;-79
2022/05/20 08:37:37;;;;;;;9.48;3.17;;;16.80;99.90;;;;;;5014121;28;20461;-77
2022/05/20 08:40:04;;;;;;;11.57;4.10;;;16.90;99.90;;;;;;5021992;28;20073;-80
2022/05/20 08:42:32;;;;;;;5.95;2.80;;;17.00;99.90;;;;;;5028436;28;20057;-79
2022/05/20 08:45:00;;;;;;;7.07;3.67;;;17.00;99.90;;;;;;5036912;28;20045;-80
2022/05/20 08:47:44;;;;;;;8.57;3.90;;;17.10;99.90;;;;;;5016684;28;20168;-80
2022/05/20 08:50:14;;;;;;;9.20;4.07;;;17.20;99.90;;;;;;5024809;28;20053;-79
2022/05/20 08:52:41;;;;;;;7.47;3.22;;;17.20;99.90;;;;;;5026218;28;20053;-80
2022/05/20 08:55:08;;;;;;;7.50;3.58;;;17.20;99.90;;;;;;5028887;28;20049;-80
2022/05/20 08:57:34;;;;;;;7.57;2.63;;;17.40;99.90;;;;;;5025360;28;20156;-79
2022/05/20 09:00:03;;;;;;;6.78;2.60;;;17.50;99.90;;;;;;5027832;28;20492;-79
2022/05/20 09:02:32;;;;;;;7.40;2.85;;;17.60;99.90;;;;;;5024032;28;20099;-79
2022/05/20 09:04:57;;;;;;;5.78;2.47;;;17.70;99.90;;;;;;5025363;28;20594;-78
2022/05/20 09:07:23;;;;;;;6.90;3.35;;;17.60;99.90;;;;;;5028524;28;20152;-80
2022/05/20 09:09:53;;;;;;;7.00;3.05;;;17.60;99.90;;;;;;5025692;28;20513;-79
2022/05/20 09:12:32;;;;;;;8.50;3.20;;;17.60;99.90;;;;;;5028108;28;20046;-79
2022/05/20 09:17:46;;;;;;;8.70;2.80;;;17.70;99.90;;;;;;5026318;28;20120;-76
2022/05/20 09:20:17;;;;;;;6.20;2.45;;;17.90;99.90;;;;;;5058192;28;20099;-78
2022/05/20 09:22:55;;;;;;;9.82;3.08;;;18.00;99.90;;;;;;5019379;28;20828;-77
2022/05/20 09:25:27;;;;;;;7.63;3.08;;;18.20;99.90;;;;;;5027438;28;20041;-77
2022/05/20 09:28:25;;;;;;;6.00;2.75;;;18.30;99.90;;;;;;5026249;28;20056;-77
2022/05/20 09:31:01;;;;;;;9.95;3.70;;;18.50;99.90;;;;;;5025996;28;20044;-77
2022/05/20 09:33:30;;;;;;;6.13;3.08;;;18.50;99.90;;;;;;5008349;28;20437;-77
2022/05/20 09:36:00;;;;;;;5.20;2.85;;;18.50;99.90;;;;;;4988060;28;20057;-81
2022/05/20 09:38:32;;;;;;;6.68;3.20;;;18.50;99.90;;;;;;5006332;28;20078;-81
2022/05/20 09:40:59;;;;;;;9.75;2.85;;;18.60;99.90;;;;;;5008669;28;20048;-81
2022/05/20 09:43:28;;;;;;;6.38;2.50;;;18.70;99.90;;;;;;4987471;28;20037;-81
2022/05/20 09:45:56;;;;;;;7.72;2.80;;;18.70;99.90;;;;;;4988095;28;20092;-81
2022/05/20 09:48:43;;;;;;;6.07;2.63;;;18.70;99.90;;;;;;5004123;28;20057;-80
2022/05/20 09:51:19;;;;;;;8.45;2.67;;;18.90;99.90;;;;;;4987520;28;20053;-77
2022/05/20 09:54:07;;;;;;;9.38;2.70;;;19.00;99.90;;;;;;5006746;28;20064;-78
2022/05/20 09:56:39;;;;;;;6.82;2.83;;;19.10;99.90;;;;;;4985686;28;20120;-78
2022/05/20 09:59:49;;;;;;;9.90;3.70;;;19.20;99.90;;;;;;4991433;28;20053;-78
2022/05/20 10:02:30;;;;;;;10.90;3.50;;;19.30;99.90;;;;;;4972886;28;20379;-79
2022/05/20 10:05:04;;;;;;;8.25;3.90;;;19.40;99.90;;;;;;5000196;28;20046;-79
2022/05/20 10:08:00;;;;;;;9.70;3.58;;;19.40;99.90;;;;;;5004989;28;20053;-79
2022/05/20 10:10:29;;;;;;;7.97;2.85;;;19.40;99.90;;;;;;4985187;28;20089;-79
2022/05/20 10:12:57;;;;;;;6.30;3.53;;;19.40;99.90;;;;;;4989091;28;20056;-79
2022/05/20 10:15:28;;;;;;;9.82;3.85;;;19.50;99.90;;;;;;4983949;28;20133;-78
2022/05/20 10:18:37;;;;;;;8.63;4.15;;;19.50;99.90;;;;;;5004736;28;20076;-75
2022/05/20 10:21:23;;;;;;;12.27;4.03;;;19.60;99.90;;;;;;4910614;29;20052;-75
2022/05/20 10:24:15;;;;;;;8.77;3.78;;;19.60;99.90;;;;;;5003777;28;20125;-76
2022/05/20 10:26:57;;;;;;;7.88;3.97;;;19.70;99.90;;;;;;5019959;28;20046;-75
2022/05/20 10:32:49;;;;;;;8.77;4.35;;;19.90;99.90;;;;;;5013828;28;20058;-76
2022/05/20 10:35:20;;;;;;;7.85;4.65;;;19.90;99.90;;;;;;5018567;28;20143;-75
2022/05/20 10:37:59;;;;;;;8.60;4.38;;;19.90;99.90;;;;;;5021610;28;20041;-76
2022/05/20 10:40:59;;;;;;;8.32;5.00;;;19.90;99.90;;;;;;5021481;28;20064;-75
2022/05/20 10:49:49;;;;;;;10.43;5.38;;;20.20;99.90;;;;;;5024265;28;20053;-76
2022/05/20 10:52:31;;;;;;;8.68;5.15;;;20.30;99.90;;;;;;5023948;28;20099;-76
2022/05/20 10:55:10;;;;;;;8.50;4.53;;;20.30;99.90;;;;;;5027827;28;20049;-76
2022/05/20 10:58:06;;;;;;;7.68;5.28;;;20.40;99.90;;;;;;5023759;28;20477;-75
2022/05/20 11:00:52;;;;;;;7.43;5.07;;;20.50;99.90;;;;;;5026117;28;20488;-75
2022/05/20 11:03:49;;;;;;;9.40;4.55;;;20.60;99.90;;;;;;5028914;28;20052;-77
2022/05/20 11:06:51;;;;;;;7.80;5.60;;;20.60;99.90;;;;;;4957164;28;20142;-75
2022/05/20 11:09:39;;;;;;;9.50;5.13;;;20.60;99.90;;;;;;5031239;28;20069;-77
2022/05/20 11:12:06;;;;;;;9.68;5.03;;;20.70;99.90;;;;;;5022715;28;20057;-77
2022/05/20 11:14:57;;;;;;;7.32;5.30;;;20.70;99.90;;;;;;5030279;28;20041;-77
2022/05/20 11:17:45;;;;;;;8.35;4.97;;;20.80;99.90;;;;;;5025778;28;20505;-75
2022/05/20 11:20:32;;;;;;;6.82;4.03;;;20.80;99.90;;;;;;5028717;28;20061;-76
2022/05/20 11:23:12;;;;;;;6.40;4.05;;;20.80;99.90;;;;;;5016341;28;20203;-77
2022/05/20 11:26:17;;;;;;;7.75;4.00;;;21.00;99.90;;;;;;5025511;28;20068;-75
2022/05/20 11:29:04;;;;;;;5.70;3.38;;;21.10;99.90;;;;;;5021110;28;20112;-76
2022/05/20 11:32:02;;;;;;;6.97;3.58;;;21.20;99.90;;;;;;5024947;28;20157;-75
2022/05/20 11:34:46;;;;;;;5.80;3.10;;;21.30;99.10;;;;;;5028960;28;20497;-75
2022/05/20 11:37:28;;;;;;;7.95;3.40;;;21.40;99.90;;;;;;5025154;28;20053;-76
2022/05/20 11:40:18;;;;;;;7.70;3.45;;;21.40;99.50;;;;;;5041415;28;20061;-75
2022/05/20 11:43:10;;;;;;;6.95;4.00;;;21.50;98.10;;;;;;5028664;28;21279;-76
2022/05/20 11:45:42;;;;;;;6.88;3.10;;;21.60;97.00;;;;;;5054485;28;20159;-76
2022/05/20 11:48:49;;;;;;;7.20;3.53;;;21.70;98.40;;;;;;5029360;28;20481;-76
2022/05/20 11:51:15;;;;;;;6.40;3.70;;;21.80;97.60;;;;;;5004515;28;20417;-76
2022/05/20 11:53:54;;;;;;;6.00;3.00;;;21.90;97.10;;;;;;5023217;28;20049;-76
2022/05/20 11:56:28;;;;;;;4.32;2.55;;;21.90;97.20;;;;;;5038916;28;20037;-76
2022/05/20 11:59:18;;;;;;;6.93;2.65;;;21.90;96.20;;;;;;5029275;28;20041;-79
2022/05/20 12:01:47;;;;;;;8.07;3.90;;;22.10;95.80;;;;;;5028026;28;20054;-78
2022/05/20 12:04:16;;;;;;;7.22;3.63;;;22.10;97.40;;;;;;5027124;28;20516;-78
2022/05/20 12:06:58;;;;;;;11.60;3.47;;;22.10;97.20;;;;;;5025287;28;20172;-78
2022/05/20 12:09:30;;;;;;;5.53;2.65;;;22.20;95.10;;;;;;5023238;28;20046;-79
2022/05/20 12:12:22;;;;;;;5.15;3.10;;;22.10;95.50;;;;;;5025782;28;20068;-78
2022/05/20 12:14:56;;;;;;;5.88;2.80;;;22.10;94.60;;;;;;5028802;28;20041;-77
2022/05/20 12:17:46;;;;;;;4.10;2.13;;;22.10;94.50;;;;;;5025549;28;20053;-77
2022/05/20 12:26:00;;;;;;;5.03;2.10;;;22.00;92.30;;;;;;5028523;28;20053;-77
2022/05/20 12:28:25;;;;;;;2.38;1.40;;;22.00;93.30;;;;;;5025722;28;20042;-76
2022/05/20 12:31:13;;;;;;;5.05;1.60;;;21.90;92.30;;;;;;5023032;28;20110;-77
2022/05/20 12:33:57;;;;;;;4.32;1.98;;;21.90;90.90;;;;;;5058916;28;20049;-76
2022/05/20 12:36:29;;;;;;;4.57;1.95;;;21.90;91.90;;;;;;5029045;28;20045;-76
2022/05/20 12:39:07;;;;;;;6.72;2.25;;;22.00;92.10;;;;;;5023335;28;20061;-76
2022/05/20 12:41:53;;;;;;;5.70;3.40;;;22.00;92.00;;;;;;5060665;28;20060;-76
2022/05/20 12:44:21;;;;;;;5.60;3.38;;;22.10;93.00;;;;;;5027335;28;20404;-77
2022/05/20 12:46:59;;;;;;;5.25;3.28;;;22.10;92.30;;;;;;5024051;28;20073;-78
2022/05/20 12:49:34;;;;;;;8.02;4.05;;;22.30;92.80;;;;;;5060533;28;20826;-77
2022/05/20 12:52:19;;;;;;;6.47;4.72;;;22.30;92.60;;;;;;5026861;28;20061;-77
2022/05/20 12:54:57;;;;;;;8.15;5.70;;;22.30;94.40;;;;;;5031823;28;20053;-77
2022/05/20 12:57:26;;;;;;;7.25;4.90;;;22.30;94.00;;;;;;5024027;28;20064;-76
2022/05/20 13:00:04;;;;;;;6.82;4.72;;;22.30;93.90;;;;;;5027005;28;20045;-77
2022/05/20 13:02:36;;;;;;;6.22;3.83;;;22.20;93.60;;;;;;5023625;28;20099;-77
2022/05/20 13:05:04;;;;;;;10.20;3.70;;;22.20;93.00;;;;;;5024633;28;20053;-77
2022/05/20 13:07:33;;;;;;;4.95;2.35;;;22.10;92.70;;;;;;5023637;28;20501;-76
2022/05/20 13:09:59;;;;;;;6.00;2.75;;;22.00;91.70;;;;;;5026126;28;20050;-77
2022/05/20 13:12:25;;;;;;;5.88;2.35;;;21.90;91.30;;;;;;5026502;28;20539;-76
2022/05/20 13:15:08;;;;;;;4.15;2.13;;;21.80;91.00;;;;;;5024011;28;20061;-76
2022/05/20 13:17:34;;;;;;;7.90;4.95;;;21.70;91.10;;;;;;5027685;28;20064;-77
2022/05/20 13:20:01;;;;;;;8.73;5.22;;;21.60;92.20;;;;;;5027663;28;20497;-76
2022/05/20 13:22:28;;;;;;;7.75;4.93;;;21.60;93.00;;;;;;5024567;28;20045;-76
2022/05/20 13:25:06;;;;;;;12.27;5.80;;;21.40;93.50;;;;;;5021234;28;22672;-76
2022/05/20 13:27:32;;;;;;;7.10;5.30;;;21.30;94.80;;;;;;5026373;28;20133;-77
2022/05/20 13:30:10;;;;;;;9.68;4.93;;;21.10;95.20;;;;;;5023842;28;20157;-76
2022/05/20 13:32:36;;;;;;;9.07;5.40;;;21.00;96.20;;;;;;5014783;28;20058;-78
2022/05/20 13:35:05;;;;;;;6.88;5.43;;;20.90;96.10;;;;;;5002576;28;20052;-76
2022/05/20 13:37:38;;;;;;;10.18;5.30;;;20.70;96.10;;;;;;5009073;28;20061;-76
2022/05/20 13:40:15;;;;;;;6.82;4.60;;;20.60;96.40;;;;;;5005651;28;20080;-76
2022/05/20 13:42:48;;;;;;;6.75;4.68;;;20.40;96.70;;;;;;4997946;28;20050;-75
2022/05/20 13:45:15;;;;;;;8.52;4.60;;;20.30;96.70;;;;;;4989213;28;20041;-76